createdAt,value
2019-03-17T00:01:57.661Z,95308.38
2019-03-17T00:04:31.799Z,95304.51
2019-03-17T00:06:58.368Z,95304.16
2019-03-17T00:09:27.737Z,95306.73
2019-03-17T00:11:57.106Z,95298.97
2019-03-17T00:14:26.450Z,95249.91
2019-03-17T00:16:55.772Z,95304.08
2019-03-17T00:19:27.530Z,95305.95
2019-03-17T00:21:56.222Z,95303.80
2019-03-17T00:24:25.596Z,95300.98
2019-03-17T00:26:55.011Z,95300.14
2019-03-17T00:29:24.349Z,95307.40
2019-03-17T00:31:53.687Z,95305.34
2019-03-17T00:34:23.089Z,95301.13
2019-03-17T00:36:52.558Z,95307.83
2019-03-17T00:39:21.921Z,95303.05
2019-03-17T00:41:51.293Z,95302.16
2019-03-17T00:44:20.626Z,95302.20
2019-03-17T00:46:49.979Z,95303.17
2019-03-17T00:49:19.323Z,95297.66
2019-03-17T00:51:48.667Z,95298.84
2019-03-17T00:54:18.024Z,95296.53
2019-03-17T00:56:47.370Z,95292.50
2019-03-17T00:59:16.692Z,95285.64
2019-03-17T01:01:46.453Z,95290.22
2019-03-17T01:04:15.790Z,95284.09
2019-03-17T01:06:45.165Z,95282.98
2019-03-17T01:09:14.534Z,95291.98
2019-03-17T01:11:44.226Z,95290.97
2019-03-17T01:14:13.610Z,95290.64
2019-03-17T01:16:43.004Z,95287.89
2019-03-17T01:19:12.361Z,95289.57
2019-03-17T01:21:41.690Z,95291.16
2019-03-17T01:24:11.034Z,95294.41
2019-03-17T01:26:40.377Z,95294.09
2019-03-17T01:29:09.759Z,95295.19
2019-03-17T01:31:39.135Z,95299.80
2019-03-17T01:34:08.472Z,95303.09
2019-03-17T01:36:37.954Z,95303.73
2019-03-17T01:39:07.988Z,95297.48
2019-03-17T01:41:37.374Z,95311.89
2019-03-17T01:44:06.808Z,95309.12
2019-03-17T01:46:36.143Z,95311.72
2019-03-17T01:49:05.547Z,95308.25
2019-03-17T01:51:34.879Z,95311.81
2019-03-17T01:54:04.222Z,95311.23
2019-03-17T01:56:33.567Z,95308.22
2019-03-17T01:59:02.886Z,95315.42
2019-03-17T02:01:32.222Z,95309.62
2019-03-17T02:04:01.567Z,95310.36
2019-03-17T02:06:30.939Z,95306.95
2019-03-17T02:09:00.320Z,95315.48
2019-03-17T02:11:29.653Z,95301.05
2019-03-17T02:13:59.018Z,95304.45
2019-03-17T02:16:28.356Z,95290.30
2019-03-17T02:18:57.702Z,95290.70
2019-03-17T02:21:27.058Z,95298.44
2019-03-17T02:23:56.415Z,95306.02
2019-03-17T02:26:25.774Z,95315.19
2019-03-17T02:28:55.558Z,95320.95
2019-03-17T02:31:24.921Z,95316.75
2019-03-17T02:33:54.306Z,95319.69
2019-03-17T02:36:23.687Z,95317.08
2019-03-17T02:38:53.086Z,95312.96
2019-03-17T02:41:22.408Z,95325.15
2019-03-17T02:43:51.784Z,95322.59
2019-03-17T02:46:21.124Z,95344.28
2019-03-17T02:48:50.521Z,95343.81
2019-03-17T02:51:19.865Z,95346.42
2019-03-17T02:53:49.223Z,95352.91
2019-03-17T02:56:20.012Z,95355.01
2019-03-17T02:58:49.424Z,95355.11
2019-03-17T03:01:18.786Z,95355.84
2019-03-17T03:03:48.215Z,95361.69
2019-03-17T03:06:17.681Z,95361.91
2019-03-17T03:08:47.049Z,95375.27
2019-03-17T03:11:16.527Z,95370.98
2019-03-17T03:13:45.881Z,95367.76
2019-03-17T03:16:15.224Z,95373.31
2019-03-17T03:18:44.588Z,95378.46
2019-03-17T03:21:13.956Z,95391.64
2019-03-17T03:23:43.293Z,95381.44
2019-03-17T03:26:12.689Z,95380.93
2019-03-17T03:28:42.054Z,95384.38
2019-03-17T03:31:11.458Z,95385.07
2019-03-17T03:33:40.784Z,95389.89
2019-03-17T03:36:12.030Z,95391.23
2019-03-17T03:38:41.499Z,95380.24
2019-03-17T03:41:10.843Z,95377.50
2019-03-17T03:43:40.238Z,95379.69
2019-03-17T03:46:09.575Z,95383.80
2019-03-17T03:48:38.919Z,95382.78
2019-03-17T03:51:08.314Z,95378.83
2019-03-17T03:53:37.672Z,95380.70
2019-03-17T03:56:07.032Z,95381.43
2019-03-17T03:58:36.370Z,95387.38
2019-03-17T04:01:05.728Z,95384.61
2019-03-17T04:03:35.070Z,95383.91
2019-03-17T04:06:04.450Z,95390.94
2019-03-17T04:08:33.810Z,95390.70
2019-03-17T04:11:03.152Z,95391.33
2019-03-17T04:13:32.626Z,95404.62
2019-03-17T04:16:02.040Z,95394.64
2019-03-17T04:18:31.400Z,95396.87
2019-03-17T04:21:00.763Z,95403.27
2019-03-17T04:23:30.098Z,95398.70
2019-03-17T04:25:59.441Z,95409.26
2019-03-17T04:28:28.839Z,95409.66
2019-03-17T04:30:58.195Z,95406.69
2019-03-17T04:33:27.542Z,95416.81
2019-03-17T04:35:56.868Z,95428.08
2019-03-17T04:38:26.257Z,95425.80
2019-03-17T04:40:55.641Z,95419.78
2019-03-17T04:43:25.036Z,95426.66
2019-03-17T04:45:54.414Z,95423.17
2019-03-17T04:48:23.782Z,95431.21
2019-03-17T04:50:53.133Z,95425.48
2019-03-17T04:53:22.534Z,95435.13
2019-03-17T04:55:51.909Z,95431.67
2019-03-17T04:58:21.652Z,95432.53
2019-03-17T05:00:51.029Z,95432.22
2019-03-17T05:03:20.359Z,95426.98
2019-03-17T05:05:49.701Z,95438.58
2019-03-17T05:08:19.071Z,95439.91
2019-03-17T05:10:48.436Z,95434.87
2019-03-17T05:13:17.812Z,95443.27
2019-03-17T05:15:47.144Z,95441.09
2019-03-17T05:18:16.515Z,95447.17
2019-03-17T05:20:45.854Z,95446.73
2019-03-17T05:23:15.227Z,95446.83
2019-03-17T05:25:44.600Z,95451.21
2019-03-17T05:28:14.139Z,95452.39
2019-03-17T05:30:43.495Z,95452.79
2019-03-17T05:33:12.831Z,95460.44
2019-03-17T05:35:42.190Z,95461.16
2019-03-17T05:38:11.569Z,95461.91
2019-03-17T05:40:40.963Z,95459.66
2019-03-17T05:43:10.417Z,95458.35
2019-03-17T05:45:39.763Z,95456.41
2019-03-17T05:48:09.173Z,95458.66
2019-03-17T05:50:38.523Z,95461.81
2019-03-17T05:53:08.011Z,95465.84
2019-03-17T05:55:37.405Z,95467.05
2019-03-17T05:58:06.824Z,95472.42
2019-03-17T06:00:36.240Z,95464.80
2019-03-17T06:03:05.635Z,95465.28
2019-03-17T06:05:34.966Z,95470.86
2019-03-17T06:08:04.364Z,95474.77
2019-03-17T06:10:33.737Z,95479.05
2019-03-17T06:13:03.190Z,95486.27
2019-03-17T06:15:32.598Z,95489.27
2019-03-17T06:18:01.953Z,95493.15
2019-03-17T06:20:31.402Z,95497.25
2019-03-17T06:23:00.854Z,95495.57
2019-03-17T06:25:30.296Z,95485.00
2019-03-17T06:27:59.847Z,95480.59
2019-03-17T06:30:29.233Z,95337.77
2019-03-17T06:32:58.676Z,95473.59
2019-03-17T06:35:28.044Z,95480.58
2019-03-17T06:37:57.887Z,95489.00
2019-03-17T06:40:27.527Z,95492.23
2019-03-17T06:42:56.915Z,95488.42
2019-03-17T06:45:26.450Z,95487.73
2019-03-17T06:47:55.852Z,95491.95
2019-03-17T06:50:25.246Z,95478.88
2019-03-17T06:52:54.605Z,95492.12
2019-03-17T06:55:24.151Z,95485.64
2019-03-17T06:57:53.567Z,95488.06
2019-03-17T07:00:23.035Z,95487.31
2019-03-17T07:02:52.606Z,95488.36
2019-03-17T07:05:22.164Z,95483.88
2019-03-17T07:07:51.992Z,95493.48
2019-03-17T07:10:21.346Z,95489.61
2019-03-17T07:12:50.899Z,95490.03
2019-03-17T07:15:20.256Z,95483.45
2019-03-17T07:17:49.645Z,95484.44
2019-03-17T07:20:19.106Z,95489.06
2019-03-17T07:22:48.493Z,95480.96
2019-03-17T07:25:17.935Z,95481.91
2019-03-17T07:27:47.303Z,95480.55
2019-03-17T07:30:17.501Z,95481.76
2019-03-17T07:32:46.936Z,95486.05
2019-03-17T07:35:16.377Z,95484.73
2019-03-17T07:37:56.328Z,95487.15
2019-03-17T07:40:16.871Z,95483.84
2019-03-17T07:42:46.258Z,95483.45
2019-03-17T07:45:15.646Z,95491.30
2019-03-17T07:47:45.047Z,95489.20
2019-03-17T07:50:14.463Z,95487.98
2019-03-17T07:52:43.889Z,95486.97
2019-03-17T07:55:13.324Z,95486.23
2019-03-17T07:57:43.182Z,95482.65
2019-03-17T08:00:13.682Z,95478.20
2019-03-17T08:02:43.727Z,95485.71
2019-03-17T08:05:13.142Z,95480.63
2019-03-17T08:07:43.086Z,95483.70
2019-03-17T08:10:12.785Z,95467.31
2019-03-17T08:12:42.136Z,95470.33
2019-03-17T08:15:11.959Z,95471.66
2019-03-17T08:17:41.392Z,95471.63
2019-03-17T08:20:10.920Z,95474.61
2019-03-17T08:22:41.207Z,95468.53
2019-03-17T08:25:10.949Z,95468.77
2019-03-17T08:27:40.667Z,95462.89
2019-03-17T08:30:10.755Z,95467.58
2019-03-17T08:32:41.410Z,95464.70
2019-03-17T08:35:11.585Z,95454.70
2019-03-17T08:37:41.189Z,95455.95
2019-03-17T08:40:12.021Z,95459.56
2019-03-17T08:42:42.352Z,95449.67
2019-03-17T08:45:12.728Z,95448.49
2019-03-17T08:47:42.157Z,95445.77
2019-03-17T08:50:11.779Z,95442.79
2019-03-17T08:52:41.167Z,95444.26
2019-03-17T08:55:10.703Z,95447.19
2019-03-17T08:57:40.068Z,95446.83
2019-03-17T09:00:11.828Z,95439.08
2019-03-17T09:02:41.242Z,95436.81
2019-03-17T09:05:10.666Z,95431.84
2019-03-17T09:07:40.096Z,95385.55
2019-03-17T09:10:10.640Z,95427.65
2019-03-17T09:12:40.444Z,95414.27
2019-03-17T09:15:10.636Z,95426.20
2019-03-17T09:17:40.071Z,95423.53
2019-03-17T09:20:09.997Z,95415.28
2019-03-17T09:22:41.295Z,95413.27
2019-03-17T09:25:13.463Z,95410.44
2019-03-17T09:27:43.255Z,95419.99
2019-03-17T09:30:13.490Z,95409.55
2019-03-17T09:32:42.897Z,95414.37
2019-03-17T09:35:12.470Z,95410.87
2019-03-17T09:37:43.156Z,95406.76
2019-03-17T09:40:12.817Z,95403.04
2019-03-17T09:42:42.541Z,95397.39
2019-03-17T09:45:13.883Z,95397.68
2019-03-17T09:47:43.346Z,95336.87
2019-03-17T09:50:13.719Z,95388.21
2019-03-17T09:52:44.092Z,95388.17
2019-03-17T09:55:14.720Z,95389.48
2019-03-17T09:57:45.761Z,95378.20
2019-03-17T10:00:15.781Z,95372.68
2019-03-17T10:02:47.470Z,95370.72
2019-03-17T10:05:17.430Z,95371.69
2019-03-17T10:07:47.002Z,95366.69
2019-03-17T10:10:17.036Z,95369.09
2019-03-17T10:12:47.993Z,95367.81
2019-03-17T10:15:17.396Z,95369.50
2019-03-17T10:17:46.916Z,95363.95
2019-03-17T10:20:17.353Z,95366.34
2019-03-17T10:22:46.736Z,95367.47
2019-03-17T10:25:16.072Z,95362.42
2019-03-17T10:27:46.995Z,95356.98
2019-03-17T10:30:17.645Z,95357.06
2019-03-17T10:32:56.786Z,95353.56
2019-03-17T10:35:26.265Z,95351.94
2019-03-17T10:38:08.494Z,95342.50
2019-03-17T10:40:38.335Z,95348.03
2019-03-17T10:43:07.971Z,95339.11
2019-03-17T10:45:39.004Z,95340.05
2019-03-17T10:48:12.311Z,95330.64
2019-03-17T10:50:49.405Z,94883.01
2019-03-17T10:53:19.106Z,95332.02
2019-03-17T10:55:53.503Z,95327.20
2019-03-17T10:58:23.746Z,95325.41
2019-03-17T11:00:54.081Z,95320.38
2019-03-17T11:03:23.636Z,95321.11
2019-03-17T11:05:54.537Z,95230.28
2019-03-17T11:08:25.376Z,95318.41
2019-03-17T11:10:54.877Z,94990.10
2019-03-17T11:13:24.383Z,95304.97
2019-03-17T11:15:54.867Z,95222.00
2019-03-17T11:18:25.239Z,95293.86
2019-03-17T11:20:55.542Z,95294.23
2019-03-17T11:23:25.041Z,95292.62
2019-03-17T11:25:55.458Z,95283.26
2019-03-17T11:28:26.159Z,95277.89
2019-03-17T11:30:59.977Z,95278.36
2019-03-17T11:33:30.101Z,95270.67
2019-03-17T11:35:59.983Z,95273.52
2019-03-17T11:38:30.693Z,95254.99
2019-03-17T11:41:00.295Z,95253.98
2019-03-17T11:43:29.885Z,95246.64
2019-03-17T11:46:00.323Z,95247.59
2019-03-17T11:48:31.616Z,95243.12
2019-03-17T11:51:01.190Z,95238.67
2019-03-17T11:53:30.676Z,95237.58
2019-03-17T11:56:00.529Z,95228.72
2019-03-17T11:58:31.751Z,95225.36
2019-03-17T12:01:02.118Z,95215.75
2019-03-17T12:03:31.671Z,95208.40
2019-03-17T12:06:01.110Z,95208.84
2019-03-17T12:08:31.522Z,95207.19
2019-03-17T12:11:01.006Z,95203.55
2019-03-17T12:13:31.331Z,95206.84
2019-03-17T12:16:00.871Z,95202.30
2019-03-17T12:18:30.371Z,95200.44
2019-03-17T12:21:00.442Z,95196.50
2019-03-17T12:23:31.782Z,95189.57
2019-03-17T12:26:02.063Z,95185.08
2019-03-17T12:28:32.472Z,95183.79
2019-03-17T12:31:02.846Z,95178.42
2019-03-17T12:33:33.365Z,95175.09
2019-03-17T12:36:04.300Z,95178.34
2019-03-17T12:38:34.151Z,95173.61
2019-03-17T12:41:03.690Z,95166.34
2019-03-17T12:43:33.211Z,95160.98
2019-03-17T12:46:03.901Z,95164.81
2019-03-17T12:48:34.230Z,95160.08
2019-03-17T12:51:05.130Z,95154.88
2019-03-17T12:53:35.806Z,95157.95
2019-03-17T12:56:06.116Z,95160.55
2019-03-17T12:58:35.848Z,95158.04
2019-03-17T13:01:05.331Z,95165.09
2019-03-17T13:03:34.719Z,95155.67
2019-03-17T13:06:05.210Z,95154.21
2019-03-17T13:08:34.627Z,95160.87
2019-03-17T13:11:04.092Z,95153.65
2019-03-17T13:13:34.739Z,95152.77
2019-03-17T13:16:04.215Z,95143.63
2019-03-17T13:18:33.610Z,95143.19
2019-03-17T13:21:02.933Z,95145.05
2019-03-17T13:23:33.870Z,95141.73
2019-03-17T13:26:03.462Z,95137.61
2019-03-17T13:28:32.842Z,95134.45
2019-03-17T13:31:02.619Z,95130.52
2019-03-17T13:33:31.964Z,95133.41
2019-03-17T13:36:01.290Z,95135.11
2019-03-17T13:38:30.677Z,95124.03
2019-03-17T13:41:00.029Z,95121.84
2019-03-17T13:43:29.423Z,95099.00
2019-03-17T13:45:58.781Z,95111.62
2019-03-17T13:48:28.145Z,95103.33
2019-03-17T13:50:57.581Z,95102.06
2019-03-17T13:53:26.948Z,95103.22
2019-03-17T13:55:56.328Z,95108.72
2019-03-17T13:58:25.703Z,95105.67
2019-03-17T14:00:55.296Z,95099.45
2019-03-17T14:03:24.680Z,95090.41
2019-03-17T14:05:54.097Z,95092.31
2019-03-17T14:08:23.448Z,95074.53
2019-03-17T14:10:52.817Z,95083.83
2019-03-17T14:13:22.201Z,95088.98
2019-03-17T14:15:51.565Z,95087.17
2019-03-17T14:18:20.949Z,95082.19
2019-03-17T14:20:50.349Z,95082.59
2019-03-17T14:23:19.776Z,95079.44
2019-03-17T14:25:49.447Z,95077.27
2019-03-17T14:28:18.847Z,95076.00
2019-03-17T14:30:48.428Z,95068.64
2019-03-17T14:33:18.214Z,95070.19
2019-03-17T14:35:47.681Z,95080.27
2019-03-17T14:38:17.033Z,95075.03
2019-03-17T14:40:53.417Z,95072.23
2019-03-17T14:43:17.935Z,95071.18
2019-03-17T14:45:47.323Z,95073.94
2019-03-17T14:48:16.744Z,95072.95
2019-03-17T14:50:46.102Z,95072.31
2019-03-17T14:53:15.482Z,95074.88
2019-03-17T14:55:44.932Z,95053.99
2019-03-17T14:58:14.332Z,95070.20
2019-03-17T15:00:43.687Z,95070.20
2019-03-17T15:03:13.130Z,95066.58
2019-03-17T15:05:42.560Z,95062.30
2019-03-17T15:08:12.189Z,95063.50
2019-03-17T15:10:41.544Z,95053.08
2019-03-17T15:13:10.982Z,95062.72
2019-03-17T15:15:40.440Z,95062.72
2019-03-17T15:18:09.925Z,95054.66
2019-03-17T15:20:39.807Z,95049.73
2019-03-17T15:23:09.237Z,95058.62
2019-03-17T15:25:39.811Z,95057.95
2019-03-17T15:28:09.238Z,95057.95
2019-03-17T15:30:38.635Z,95052.16
2019-03-17T15:33:08.124Z,95069.64
2019-03-17T15:35:37.479Z,95069.64
2019-03-17T15:38:06.867Z,95066.17
2019-03-17T15:40:36.276Z,95064.61
2019-03-17T15:43:05.661Z,95072.95
2019-03-17T15:45:35.123Z,95077.53
2019-03-17T15:48:04.556Z,95081.95
2019-03-17T15:50:34.174Z,95083.58
2019-03-17T15:53:03.599Z,95081.67
2019-03-17T15:55:33.185Z,95086.02
2019-03-17T15:58:02.559Z,95078.23
2019-03-17T16:00:31.940Z,95081.66
2019-03-17T16:03:01.310Z,95083.70
2019-03-17T16:05:31.161Z,95086.11
2019-03-17T16:08:00.598Z,95080.52
2019-03-17T16:10:30.107Z,95085.11
2019-03-17T16:12:59.466Z,95093.00
2019-03-17T16:15:28.920Z,95093.86
2019-03-17T16:17:58.332Z,95091.58
2019-03-17T16:20:27.867Z,95090.91
2019-03-17T16:22:57.443Z,95090.47
2019-03-17T16:25:26.854Z,95093.70
2019-03-17T16:27:56.376Z,95089.28
2019-03-17T16:30:25.778Z,95092.47
2019-03-17T16:32:55.167Z,95091.35
2019-03-17T16:35:24.585Z,95091.03
2019-03-17T16:37:53.952Z,95095.98
2019-03-17T16:40:23.546Z,95092.67
2019-03-17T16:42:54.041Z,95096.06
2019-03-17T16:45:23.782Z,95092.41
2019-03-17T16:47:53.163Z,95090.26
2019-03-17T16:50:23.024Z,95088.92
2019-03-17T16:52:52.410Z,95092.52
2019-03-17T16:55:21.906Z,95097.83
2019-03-17T16:57:51.405Z,95091.20
2019-03-17T17:00:21.031Z,95098.08
2019-03-17T17:02:50.427Z,94912.13
2019-03-17T17:05:19.956Z,95099.33
2019-03-17T17:07:49.353Z,95100.71
2019-03-17T17:10:19.154Z,95102.27
2019-03-17T17:12:48.538Z,95106.39
2019-03-17T17:15:23.643Z,95113.42
2019-03-17T17:17:53.048Z,95105.05
2019-03-17T17:20:24.223Z,95108.52
2019-03-17T17:22:53.631Z,95103.64
2019-03-17T17:25:23.032Z,95104.62
2019-03-17T17:27:55.642Z,95100.70
2019-03-17T17:30:25.040Z,95110.47
2019-03-17T17:32:54.457Z,95109.51
2019-03-17T17:35:23.939Z,95110.84
2019-03-17T17:37:53.739Z,95112.20
2019-03-17T17:40:23.202Z,95117.10
2019-03-17T17:42:53.561Z,95124.48
2019-03-17T17:45:23.005Z,95122.89
2019-03-17T17:47:52.431Z,95124.61
2019-03-17T17:50:21.885Z,95120.28
2019-03-17T17:52:51.279Z,95131.73
2019-03-17T17:55:20.721Z,95129.38
2019-03-17T17:57:53.016Z,95124.46
2019-03-17T18:00:23.239Z,95130.89
2019-03-17T18:02:52.817Z,95134.56
2019-03-17T18:05:22.353Z,95135.70
2019-03-17T18:07:51.739Z,95131.80
2019-03-17T18:10:21.234Z,95131.19
2019-03-17T18:12:50.758Z,95134.67
2019-03-17T18:15:21.564Z,95107.63
2019-03-17T18:17:50.973Z,95136.35
2019-03-17T18:20:20.468Z,95140.22
2019-03-17T18:22:49.924Z,95134.91
2019-03-17T18:25:19.482Z,95143.73
2019-03-17T18:27:49.270Z,95136.39
2019-03-17T18:30:18.725Z,95139.06
2019-03-17T18:32:48.121Z,95141.77
2019-03-17T18:35:20.143Z,95136.49
2019-03-17T18:37:51.272Z,95131.38
2019-03-17T18:40:21.011Z,95134.44
2019-03-17T18:42:50.543Z,95121.27
2019-03-17T18:45:20.311Z,95123.08
2019-03-17T18:47:50.627Z,95130.85
2019-03-17T18:50:21.135Z,95120.63
2019-03-17T18:52:50.788Z,95127.34
2019-03-17T18:55:21.356Z,95127.11
2019-03-17T18:57:50.686Z,95118.94
2019-03-17T19:00:20.094Z,95124.30
2019-03-17T19:02:50.057Z,95122.27
2019-03-17T19:05:20.419Z,95121.97
2019-03-17T19:07:50.032Z,95124.99
2019-03-17T19:10:22.055Z,95120.63
2019-03-17T19:12:51.611Z,95131.44
2019-03-17T19:15:21.067Z,95133.55
2019-03-17T19:17:50.657Z,95128.98
2019-03-17T19:20:20.074Z,95137.30
2019-03-17T19:22:49.664Z,95136.20
2019-03-17T19:25:19.101Z,95134.86
2019-03-17T19:27:48.502Z,95141.28
2019-03-17T19:30:18.211Z,95141.25
2019-03-17T19:32:47.788Z,95138.38
2019-03-17T19:35:17.317Z,95142.88
2019-03-17T19:37:49.033Z,95141.39
2019-03-17T19:40:18.580Z,95141.08
2019-03-17T19:42:58.190Z,95141.08
2019-03-17T19:45:19.093Z,95151.47
2019-03-17T19:47:48.696Z,95145.20
2019-03-17T19:50:18.211Z,95150.34
2019-03-17T19:52:47.980Z,95144.27
2019-03-17T19:55:17.552Z,95152.40
2019-03-17T19:57:47.784Z,95146.19
2019-03-17T20:00:17.845Z,95144.68
2019-03-17T20:02:48.004Z,95155.52
2019-03-17T20:05:17.771Z,95147.11
2019-03-17T20:07:47.197Z,95154.52
2019-03-17T20:10:19.148Z,95152.28
2019-03-17T20:12:48.867Z,95160.91
2019-03-17T20:15:18.351Z,95156.01
2019-03-17T20:17:48.163Z,95155.91
2019-03-17T20:20:17.536Z,95150.43
2019-03-17T20:22:47.000Z,95152.64
2019-03-17T20:25:16.363Z,95158.55
2019-03-17T20:27:45.709Z,95160.64
2019-03-17T20:30:15.181Z,95159.47
2019-03-17T20:32:44.649Z,95160.52
2019-03-17T20:35:14.332Z,95155.77
2019-03-17T20:37:43.706Z,95155.21
2019-03-17T20:40:13.143Z,95157.88
2019-03-17T20:42:43.152Z,95151.28
2019-03-17T20:45:12.752Z,95154.05
2019-03-17T20:47:42.143Z,95153.92
2019-03-17T20:50:12.023Z,95151.88
2019-03-17T20:52:41.478Z,95143.46
2019-03-17T20:55:10.917Z,95156.14
2019-03-17T20:57:40.857Z,94910.13
2019-03-17T21:00:12.452Z,95146.06
2019-03-17T21:02:41.905Z,95127.83
2019-03-17T21:05:11.657Z,95150.12
2019-03-17T21:07:41.100Z,95148.00
2019-03-17T21:10:11.790Z,95144.38
2019-03-17T21:12:41.508Z,95140.89
2019-03-17T21:15:12.158Z,95131.34
2019-03-17T21:17:41.801Z,95133.86
2019-03-17T21:20:13.194Z,95134.11
2019-03-17T21:22:42.753Z,95137.81
2019-03-17T21:25:12.464Z,95138.56
2019-03-17T21:27:42.145Z,95136.95
2019-03-17T21:30:14.621Z,95134.66
2019-03-17T21:32:44.277Z,95143.58
2019-03-17T21:35:14.121Z,95141.95
2019-03-17T21:37:43.779Z,95140.22
2019-03-17T21:40:13.531Z,95144.63
2019-03-17T21:42:44.852Z,95149.59
2019-03-17T21:45:14.602Z,95143.27
2019-03-17T21:47:44.149Z,95137.75
2019-03-17T21:50:15.308Z,95139.63
2019-03-17T21:52:44.873Z,95142.58
2019-03-17T21:55:14.416Z,95137.05
2019-03-17T21:57:43.856Z,95134.59
2019-03-17T22:00:14.924Z,95143.02
2019-03-17T22:02:44.391Z,95147.30
2019-03-17T22:05:14.079Z,95148.69
2019-03-17T22:07:49.342Z,95156.34
2019-03-17T22:10:15.808Z,95151.17
2019-03-17T22:12:47.233Z,95152.86
2019-03-17T22:15:17.056Z,95158.16
2019-03-17T22:17:47.360Z,95154.10
2019-03-17T22:20:17.080Z,95158.03
2019-03-17T22:22:46.615Z,95156.47
2019-03-17T22:25:16.283Z,95158.52
2019-03-17T22:27:46.663Z,95162.67
2019-03-17T22:30:17.228Z,95151.97
2019-03-17T22:32:46.674Z,95146.80
2019-03-17T22:35:16.109Z,95148.36
2019-03-17T22:37:45.590Z,95147.45
2019-03-17T22:40:15.232Z,95155.57
2019-03-17T22:42:44.627Z,95154.42
2019-03-17T22:45:14.313Z,95155.11
2019-03-17T22:47:44.568Z,95163.19
2019-03-17T22:50:14.097Z,95160.83
2019-03-17T22:52:44.421Z,95157.59
2019-03-17T22:55:14.046Z,95163.91
2019-03-17T22:57:44.458Z,95155.58
2019-03-17T23:00:19.363Z,95152.75
2019-03-17T23:02:49.323Z,95158.03
2019-03-17T23:05:18.873Z,95154.30
2019-03-17T23:07:48.233Z,95160.05
2019-03-17T23:10:19.829Z,95158.36
2019-03-17T23:12:50.517Z,95161.89
2019-03-17T23:15:23.435Z,95160.05
2019-03-17T23:17:52.762Z,95159.98
2019-03-17T23:20:22.376Z,95173.53
2019-03-17T23:22:51.995Z,95174.23
2019-03-17T23:25:21.431Z,95175.98
2019-03-17T23:27:50.965Z,95179.08
2019-03-17T23:30:20.472Z,95188.42
2019-03-17T23:32:50.001Z,95188.17
2019-03-17T23:35:19.495Z,95176.80
2019-03-17T23:37:48.902Z,95175.09
2019-03-17T23:40:18.411Z,95182.00
2019-03-17T23:42:47.936Z,95182.20
2019-03-17T23:45:17.355Z,95180.91
2019-03-17T23:47:46.780Z,95180.52
2019-03-17T23:50:16.158Z,95182.98
2019-03-17T23:52:45.555Z,95188.80
2019-03-17T23:55:14.962Z,95188.61
2019-03-17T23:57:44.388Z,95192.96
